sensor_id;sensor_type;location;lat;lon;timestamp;P1;durP1;ratioP1;P2;durP2;ratioP2
9128;SDS011;4599;50.906;6.786;2024-02-16T00:00:06;5.50;;;2.10;;
9128;SDS011;4599;50.906;6.786;2024-02-16T00:04:09;4.27;;;2.43;;
9128;SDS011;4599;50.906;6.786;2024-02-16T00:08:11;3.30;;;1.80;;
9128;SDS011;4599;50.906;6.786;2024-02-16T00:12:13;3.10;;;2.17;;
9128;SDS011;4599;50.906;6.786;2024-02-16T00:16:15;3.37;;;2.37;;
9128;SDS011;4599;50.906;6.786;2024-02-16T00:20:19;3.40;;;1.90;;
9128;SDS011;4599;50.906;6.786;2024-02-16T00:24:21;3.63;;;1.93;;
9128;SDS011;4599;50.906;6.786;2024-02-16T00:28:22;6.07;;;2.47;;
9128;SDS011;4599;50.906;6.786;2024-02-16T00:32:25;6.10;;;1.90;;
9128;SDS011;4599;50.906;6.786;2024-02-16T00:36:28;5.07;;;2.00;;
9128;SDS011;4599;50.906;6.786;2024-02-16T00:40:30;4.67;;;2.20;;
9128;SDS011;4599;50.906;6.786;2024-02-16T00:44:35;5.83;;;2.70;;
9128;SDS011;4599;50.906;6.786;2024-02-16T00:48:37;6.07;;;2.70;;
9128;SDS011;4599;50.906;6.786;2024-02-16T00:52:40;3.90;;;2.30;;
9128;SDS011;4599;50.906;6.786;2024-02-16T00:56:42;3.43;;;2.17;;
9128;SDS011;4599;50.906;6.786;2024-02-16T01:00:44;5.33;;;2.40;;
9128;SDS011;4599;50.906;6.786;2024-02-16T01:04:46;7.13;;;2.67;;
9128;SDS011;4599;50.906;6.786;2024-02-16T01:08:49;3.53;;;2.40;;
9128;SDS011;4599;50.906;6.786;2024-02-16T01:12:51;6.97;;;2.83;;
9128;SDS011;4599;50.906;6.786;2024-02-16T01:16:54;4.77;;;2.50;;
9128;SDS011;4599;50.906;6.786;2024-02-16T01:20:55;6.53;;;2.27;;
9128;SDS011;4599;50.906;6.786;2024-02-16T01:24:59;7.40;;;2.43;;
9128;SDS011;4599;50.906;6.786;2024-02-16T01:29:03;6.70;;;2.30;;
9128;SDS011;4599;50.906;6.786;2024-02-16T01:33:07;7.67;;;2.77;;
9128;SDS011;4599;50.906;6.786;2024-02-16T01:37:09;4.63;;;2.10;;
9128;SDS011;4599;50.906;6.786;2024-02-16T01:41:12;6.37;;;2.20;;
9128;SDS011;4599;50.906;6.786;2024-02-16T01:45:15;4.97;;;2.20;;
9128;SDS011;4599;50.906;6.786;2024-02-16T01:49:17;2.50;;;1.70;;
9128;SDS011;4599;50.906;6.786;2024-02-16T01:53:19;7.07;;;2.23;;
9128;SDS011;4599;50.906;6.786;2024-02-16T01:57:23;5.23;;;1.87;;
9128;SDS011;4599;50.906;6.786;2024-02-16T02:01:25;4.40;;;1.77;;
9128;SDS011;4599;50.906;6.786;2024-02-16T02:05:27;3.23;;;2.17;;
9128;SDS011;4599;50.906;6.786;2024-02-16T02:09:29;3.40;;;1.70;;
9128;SDS011;4599;50.906;6.786;2024-02-16T02:13:32;4.97;;;2.00;;
9128;SDS011;4599;50.906;6.786;2024-02-16T02:17:34;3.40;;;2.00;;
9128;SDS011;4599;50.906;6.786;2024-02-16T02:21:36;4.67;;;1.97;;
9128;SDS011;4599;50.906;6.786;2024-02-16T02:25:39;4.60;;;1.87;;
9128;SDS011;4599;50.906;6.786;2024-02-16T02:29:41;4.53;;;2.00;;
9128;SDS011;4599;50.906;6.786;2024-02-16T02:33:44;5.53;;;1.70;;
9128;SDS011;4599;50.906;6.786;2024-02-16T02:37:45;4.07;;;1.97;;
9128;SDS011;4599;50.906;6.786;2024-02-16T02:41:50;4.30;;;1.97;;
9128;SDS011;4599;50.906;6.786;2024-02-16T02:45:53;5.57;;;1.70;;
9128;SDS011;4599;50.906;6.786;2024-02-16T02:49:54;3.20;;;1.80;;
9128;SDS011;4599;50.906;6.786;2024-02-16T02:53:56;3.73;;;1.80;;
9128;SDS011;4599;50.906;6.786;2024-02-16T02:57:59;5.90;;;2.10;;
9128;SDS011;4599;50.906;6.786;2024-02-16T03:02:01;4.00;;;1.90;;
9128;SDS011;4599;50.906;6.786;2024-02-16T03:06:03;3.00;;;1.80;;
9128;SDS011;4599;50.906;6.786;2024-02-16T03:10:06;4.43;;;1.90;;
9128;SDS011;4599;50.906;6.786;2024-02-16T03:14:10;3.20;;;1.70;;
9128;SDS011;4599;50.906;6.786;2024-02-16T03:18:12;5.20;;;2.10;;
9128;SDS011;4599;50.906;6.786;2024-02-16T03:22:14;7.07;;;2.10;;
9128;SDS011;4599;50.906;6.786;2024-02-16T03:26:15;4.83;;;2.00;;
9128;SDS011;4599;50.906;6.786;2024-02-16T03:30:19;3.17;;;1.70;;
9128;SDS011;4599;50.906;6.786;2024-02-16T03:34:21;3.60;;;1.80;;
9128;SDS011;4599;50.906;6.786;2024-02-16T03:38:23;3.07;;;1.67;;
9128;SDS011;4599;50.906;6.786;2024-02-16T03:42:25;2.43;;;1.70;;
9128;SDS011;4599;50.906;6.786;2024-02-16T03:46:28;5.67;;;2.30;;
9128;SDS011;4599;50.906;6.786;2024-02-16T03:50:30;3.20;;;1.83;;
9128;SDS011;4599;50.906;6.786;2024-02-16T03:54:32;4.77;;;2.10;;
9128;SDS011;4599;50.906;6.786;2024-02-16T03:58:35;5.00;;;1.83;;
9128;SDS011;4599;50.906;6.786;2024-02-16T04:02:39;4.83;;;2.17;;
9128;SDS011;4599;50.906;6.786;2024-02-16T04:06:40;2.40;;;1.50;;
9128;SDS011;4599;50.906;6.786;2024-02-16T04:10:42;2.33;;;1.80;;
9128;SDS011;4599;50.906;6.786;2024-02-16T04:14:44;2.77;;;1.87;;
9128;SDS011;4599;50.906;6.786;2024-02-16T04:18:49;4.93;;;2.33;;
9128;SDS011;4599;50.906;6.786;2024-02-16T04:22:52;6.57;;;2.33;;
9128;SDS011;4599;50.906;6.786;2024-02-16T04:26:54;5.40;;;2.20;;
9128;SDS011;4599;50.906;6.786;2024-02-16T04:30:56;3.27;;;1.90;;
9128;SDS011;4599;50.906;6.786;2024-02-16T04:34:59;2.13;;;1.57;;
9128;SDS011;4599;50.906;6.786;2024-02-16T04:39:01;4.83;;;2.53;;
9128;SDS011;4599;50.906;6.786;2024-02-16T04:43:03;5.73;;;2.07;;
9128;SDS011;4599;50.906;6.786;2024-02-16T04:47:05;8.77;;;3.80;;
9128;SDS011;4599;50.906;6.786;2024-02-16T04:51:08;5.03;;;3.10;;
9128;SDS011;4599;50.906;6.786;2024-02-16T04:55:11;7.87;;;4.03;;
9128;SDS011;4599;50.906;6.786;2024-02-16T04:59:13;4.33;;;2.73;;
9128;SDS011;4599;50.906;6.786;2024-02-16T05:03:14;8.40;;;3.40;;
9128;SDS011;4599;50.906;6.786;2024-02-16T05:07:18;5.13;;;1.90;;
9128;SDS011;4599;50.906;6.786;2024-02-16T05:11:20;5.23;;;2.40;;
9128;SDS011;4599;50.906;6.786;2024-02-16T05:15:21;6.90;;;2.07;;
9128;SDS011;4599;50.906;6.786;2024-02-16T05:19:23;5.43;;;2.60;;
9128;SDS011;4599;50.906;6.786;2024-02-16T05:23:27;5.50;;;2.13;;
9128;SDS011;4599;50.906;6.786;2024-02-16T05:27:29;5.13;;;2.10;;
9128;SDS011;4599;50.906;6.786;2024-02-16T05:31:31;6.10;;;1.90;;
9128;SDS011;4599;50.906;6.786;2024-02-16T05:35:33;5.50;;;2.70;;
9128;SDS011;4599;50.906;6.786;2024-02-16T05:39:37;9.87;;;3.93;;
9128;SDS011;4599;50.906;6.786;2024-02-16T05:43:39;5.57;;;3.23;;
9128;SDS011;4599;50.906;6.786;2024-02-16T05:47:44;9.13;;;2.90;;
9128;SDS011;4599;50.906;6.786;2024-02-16T05:51:47;6.00;;;2.77;;
9128;SDS011;4599;50.906;6.786;2024-02-16T05:55:51;6.80;;;2.23;;
9128;SDS011;4599;50.906;6.786;2024-02-16T05:59:52;7.47;;;3.63;;
9128;SDS011;4599;50.906;6.786;2024-02-16T06:03:57;5.03;;;2.77;;
9128;SDS011;4599;50.906;6.786;2024-02-16T06:07:59;6.17;;;2.23;;
9128;SDS011;4599;50.906;6.786;2024-02-16T06:12:03;5.03;;;3.30;;
9128;SDS011;4599;50.906;6.786;2024-02-16T06:16:06;6.63;;;2.77;;
9128;SDS011;4599;50.906;6.786;2024-02-16T06:20:09;6.57;;;3.00;;
9128;SDS011;4599;50.906;6.786;2024-02-16T06:24:11;4.80;;;2.07;;
9128;SDS011;4599;50.906;6.786;2024-02-16T06:28:14;4.47;;;2.00;;
9128;SDS011;4599;50.906;6.786;2024-02-16T06:32:16;9.60;;;2.70;;
9128;SDS011;4599;50.906;6.786;2024-02-16T06:36:17;8.77;;;3.03;;
9128;SDS011;4599;50.906;6.786;2024-02-16T06:40:19;6.83;;;2.73;;
9128;SDS011;4599;50.906;6.786;2024-02-16T06:44:22;4.97;;;2.90;;
9128;SDS011;4599;50.906;6.786;2024-02-16T06:48:25;6.37;;;3.17;;
9128;SDS011;4599;50.906;6.786;2024-02-16T06:52:27;10.13;;;3.57;;
9128;SDS011;4599;50.906;6.786;2024-02-16T06:56:29;6.53;;;3.10;;
9128;SDS011;4599;50.906;6.786;2024-02-16T07:00:33;9.37;;;3.17;;
9128;SDS011;4599;50.906;6.786;2024-02-16T07:04:35;6.87;;;2.47;;
9128;SDS011;4599;50.906;6.786;2024-02-16T07:08:37;6.33;;;2.63;;
9128;SDS011;4599;50.906;6.786;2024-02-16T07:12:41;5.13;;;2.73;;
9128;SDS011;4599;50.906;6.786;2024-02-16T07:16:44;9.27;;;2.43;;
9128;SDS011;4599;50.906;6.786;2024-02-16T07:20:46;5.87;;;2.87;;
9128;SDS011;4599;50.906;6.786;2024-02-16T07:24:51;6.97;;;2.40;;
9128;SDS011;4599;50.906;6.786;2024-02-16T07:28:53;4.20;;;2.10;;
9128;SDS011;4599;50.906;6.786;2024-02-16T07:32:56;4.27;;;2.23;;
9128;SDS011;4599;50.906;6.786;2024-02-16T07:36:58;3.63;;;1.93;;
9128;SDS011;4599;50.906;6.786;2024-02-16T07:41:00;5.50;;;1.97;;
9128;SDS011;4599;50.906;6.786;2024-02-16T07:45:01;7.00;;;2.37;;
9128;SDS011;4599;50.906;6.786;2024-02-16T07:49:05;5.63;;;1.90;;
9128;SDS011;4599;50.906;6.786;2024-02-16T07:53:07;6.37;;;2.37;;
9128;SDS011;4599;50.906;6.786;2024-02-16T07:57:08;4.30;;;2.20;;
9128;SDS011;4599;50.906;6.786;2024-02-16T08:01:11;3.37;;;1.80;;
9128;SDS011;4599;50.906;6.786;2024-02-16T08:05:14;6.50;;;1.90;;
9128;SDS011;4599;50.906;6.786;2024-02-16T08:09:16;6.70;;;2.73;;
9128;SDS011;4599;50.906;6.786;2024-02-16T08:13:18;6.77;;;2.40;;
9128;SDS011;4599;50.906;6.786;2024-02-16T08:17:20;5.27;;;2.33;;
9128;SDS011;4599;50.906;6.786;2024-02-16T08:21:23;5.63;;;1.93;;
9128;SDS011;4599;50.906;6.786;2024-02-16T08:25:25;8.43;;;2.83;;
9128;SDS011;4599;50.906;6.786;2024-02-16T08:29:27;3.57;;;2.30;;
9128;SDS011;4599;50.906;6.786;2024-02-16T08:33:29;7.73;;;2.83;;
9128;SDS011;4599;50.906;6.786;2024-02-16T08:37:32;7.73;;;2.50;;
9128;SDS011;4599;50.906;6.786;2024-02-16T08:41:34;5.20;;;2.37;;
9128;SDS011;4599;50.906;6.786;2024-02-16T08:45:35;5.87;;;2.30;;
9128;SDS011;4599;50.906;6.786;2024-02-16T08:49:37;7.50;;;2.43;;
9128;SDS011;4599;50.906;6.786;2024-02-16T08:53:40;4.47;;;2.30;;
9128;SDS011;4599;50.906;6.786;2024-02-16T08:57:42;5.37;;;2.30;;
9128;SDS011;4599;50.906;6.786;2024-02-16T09:01:44;5.03;;;2.53;;
9128;SDS011;4599;50.906;6.786;2024-02-16T09:05:46;3.43;;;2.07;;
9128;SDS011;4599;50.906;6.786;2024-02-16T09:09:49;4.03;;;2.00;;
9128;SDS011;4599;50.906;6.786;2024-02-16T09:13:51;6.83;;;2.40;;
9128;SDS011;4599;50.906;6.786;2024-02-16T09:17:53;5.30;;;2.27;;
9128;SDS011;4599;50.906;6.786;2024-02-16T09:21:55;8.53;;;2.40;;
9128;SDS011;4599;50.906;6.786;2024-02-16T09:26:01;3.50;;;1.77;;
9128;SDS011;4599;50.906;6.786;2024-02-16T09:30:03;5.17;;;2.57;;
9128;SDS011;4599;50.906;6.786;2024-02-16T09:34:06;4.53;;;2.10;;
9128;SDS011;4599;50.906;6.786;2024-02-16T09:38:08;5.90;;;2.30;;
9128;SDS011;4599;50.906;6.786;2024-02-16T09:42:11;8.33;;;2.47;;
9128;SDS011;4599;50.906;6.786;2024-02-16T09:46:13;7.17;;;2.27;;
9128;SDS011;4599;50.906;6.786;2024-02-16T09:50:16;6.00;;;2.10;;
9128;SDS011;4599;50.906;6.786;2024-02-16T09:54:19;5.33;;;2.37;;
9128;SDS011;4599;50.906;6.786;2024-02-16T09:58:22;3.40;;;2.00;;
9128;SDS011;4599;50.906;6.786;2024-02-16T10:02:25;4.73;;;1.93;;
9128;SDS011;4599;50.906;6.786;2024-02-16T10:06:27;9.17;;;2.23;;
9128;SDS011;4599;50.906;6.786;2024-02-16T10:10:29;5.97;;;1.80;;
9128;SDS011;4599;50.906;6.786;2024-02-16T10:14:32;5.77;;;2.37;;
9128;SDS011;4599;50.906;6.786;2024-02-16T10:18:34;5.73;;;2.07;;
9128;SDS011;4599;50.906;6.786;2024-02-16T10:22:37;5.23;;;2.13;;
9128;SDS011;4599;50.906;6.786;2024-02-16T10:26:41;7.47;;;2.10;;
9128;SDS011;4599;50.906;6.786;2024-02-16T10:30:45;6.90;;;2.40;;
9128;SDS011;4599;50.906;6.786;2024-02-16T10:34:48;6.10;;;2.23;;
9128;SDS011;4599;50.906;6.786;2024-02-16T10:38:51;5.17;;;2.40;;
9128;SDS011;4599;50.906;6.786;2024-02-16T10:42:54;5.10;;;2.50;;
9128;SDS011;4599;50.906;6.786;2024-02-16T10:46:58;6.07;;;2.50;;
9128;SDS011;4599;50.906;6.786;2024-02-16T10:51:00;5.93;;;2.37;;
9128;SDS011;4599;50.906;6.786;2024-02-16T10:55:03;5.73;;;2.20;;
9128;SDS011;4599;50.906;6.786;2024-02-16T10:59:10;4.00;;;2.27;;
9128;SDS011;4599;50.906;6.786;2024-02-16T11:03:16;6.30;;;2.50;;
9128;SDS011;4599;50.906;6.786;2024-02-16T11:07:18;10.13;;;2.97;;
9128;SDS011;4599;50.906;6.786;2024-02-16T11:11:24;3.67;;;2.30;;
9128;SDS011;4599;50.906;6.786;2024-02-16T11:15:30;6.07;;;2.03;;
9128;SDS011;4599;50.906;6.786;2024-02-16T11:19:34;6.60;;;2.70;;
9128;SDS011;4599;50.906;6.786;2024-02-16T11:23:36;4.13;;;2.13;;
9128;SDS011;4599;50.906;6.786;2024-02-16T11:27:38;6.70;;;2.33;;
9128;SDS011;4599;50.906;6.786;2024-02-16T11:31:42;5.23;;;2.50;;
9128;SDS011;4599;50.906;6.786;2024-02-16T11:35:53;5.70;;;2.50;;
9128;SDS011;4599;50.906;6.786;2024-02-16T11:39:57;8.60;;;2.50;;
9128;SDS011;4599;50.906;6.786;2024-02-16T11:43:59;3.97;;;2.13;;
9128;SDS011;4599;50.906;6.786;2024-02-16T11:48:05;5.67;;;2.33;;
9128;SDS011;4599;50.906;6.786;2024-02-16T11:52:08;5.07;;;2.33;;
9128;SDS011;4599;50.906;6.786;2024-02-16T11:56:20;4.10;;;2.20;;
9128;SDS011;4599;50.906;6.786;2024-02-16T12:00:23;7.53;;;2.70;;
9128;SDS011;4599;50.906;6.786;2024-02-16T12:04:25;8.53;;;2.90;;
9128;SDS011;4599;50.906;6.786;2024-02-16T12:08:33;9.00;;;2.63;;
9128;SDS011;4599;50.906;6.786;2024-02-16T12:12:35;5.83;;;2.50;;
9128;SDS011;4599;50.906;6.786;2024-02-16T12:16:37;6.27;;;3.00;;
9128;SDS011;4599;50.906;6.786;2024-02-16T12:20:39;9.43;;;2.67;;
9128;SDS011;4599;50.906;6.786;2024-02-16T12:24:42;6.87;;;2.30;;
9128;SDS011;4599;50.906;6.786;2024-02-16T12:28:44;5.60;;;2.13;;
9128;SDS011;4599;50.906;6.786;2024-02-16T12:32:45;5.40;;;2.17;;
9128;SDS011;4599;50.906;6.786;2024-02-16T12:36:47;9.67;;;2.20;;
9128;SDS011;4599;50.906;6.786;2024-02-16T12:40:53;8.60;;;2.37;;
9128;SDS011;4599;50.906;6.786;2024-02-16T12:44:55;5.13;;;1.93;;
9128;SDS011;4599;50.906;6.786;2024-02-16T12:48:56;6.67;;;2.43;;
9128;SDS011;4599;50.906;6.786;2024-02-16T12:52:58;6.60;;;2.80;;
9128;SDS011;4599;50.906;6.786;2024-02-16T12:57:12;5.67;;;2.80;;
9128;SDS011;4599;50.906;6.786;2024-02-16T13:01:14;7.13;;;2.70;;
9128;SDS011;4599;50.906;6.786;2024-02-16T13:05:26;8.57;;;2.67;;
9128;SDS011;4599;50.906;6.786;2024-02-16T13:09:28;7.40;;;2.87;;
9128;SDS011;4599;50.906;6.786;2024-02-16T13:13:31;9.53;;;2.60;;
9128;SDS011;4599;50.906;6.786;2024-02-16T13:17:33;8.77;;;2.70;;
9128;SDS011;4599;50.906;6.786;2024-02-16T13:21:37;3.87;;;2.40;;
9128;SDS011;4599;50.906;6.786;2024-02-16T13:25:39;3.20;;;2.53;;
9128;SDS011;4599;50.906;6.786;2024-02-16T13:29:42;5.23;;;2.23;;
9128;SDS011;4599;50.906;6.786;2024-02-16T13:33:44;4.30;;;2.53;;
9128;SDS011;4599;50.906;6.786;2024-02-16T13:37:47;5.53;;;2.33;;
9128;SDS011;4599;50.906;6.786;2024-02-16T13:41:49;6.23;;;3.80;;
9128;SDS011;4599;50.906;6.786;2024-02-16T13:45:52;6.83;;;2.63;;
9128;SDS011;4599;50.906;6.786;2024-02-16T13:49:55;5.60;;;2.90;;
9128;SDS011;4599;50.906;6.786;2024-02-16T13:53:57;4.03;;;2.40;;
9128;SDS011;4599;50.906;6.786;2024-02-16T13:57:59;7.57;;;2.70;;
9128;SDS011;4599;50.906;6.786;2024-02-16T14:02:02;4.03;;;2.80;;
9128;SDS011;4599;50.906;6.786;2024-02-16T14:06:04;4.47;;;3.03;;
9128;SDS011;4599;50.906;6.786;2024-02-16T14:10:07;4.07;;;2.67;;
9128;SDS011;4599;50.906;6.786;2024-02-16T14:14:10;4.23;;;2.87;;
9128;SDS011;4599;50.906;6.786;2024-02-16T14:18:27;5.07;;;3.00;;
9128;SDS011;4599;50.906;6.786;2024-02-16T14:22:36;7.73;;;3.00;;
9128;SDS011;4599;50.906;6.786;2024-02-16T14:26:38;5.77;;;3.47;;
9128;SDS011;4599;50.906;6.786;2024-02-16T14:30:40;4.23;;;2.73;;
9128;SDS011;4599;50.906;6.786;2024-02-16T14:34:43;7.53;;;3.30;;
9128;SDS011;4599;50.906;6.786;2024-02-16T14:38:44;11.90;;;3.90;;
9128;SDS011;4599;50.906;6.786;2024-02-16T14:42:46;5.57;;;3.30;;
9128;SDS011;4599;50.906;6.786;2024-02-16T14:46:48;10.40;;;3.50;;
9128;SDS011;4599;50.906;6.786;2024-02-16T14:50:51;6.97;;;3.90;;
9128;SDS011;4599;50.906;6.786;2024-02-16T14:54:54;5.87;;;4.03;;
9128;SDS011;4599;50.906;6.786;2024-02-16T14:58:56;11.33;;;4.10;;
9128;SDS011;4599;50.906;6.786;2024-02-16T15:02:58;8.63;;;4.30;;
9128;SDS011;4599;50.906;6.786;2024-02-16T15:07:01;9.30;;;4.30;;
9128;SDS011;4599;50.906;6.786;2024-02-16T15:11:03;9.03;;;4.40;;
9128;SDS011;4599;50.906;6.786;2024-02-16T15:15:05;7.87;;;4.80;;
9128;SDS011;4599;50.906;6.786;2024-02-16T15:19:07;9.70;;;5.07;;
9128;SDS011;4599;50.906;6.786;2024-02-16T15:23:10;6.20;;;4.80;;
9128;SDS011;4599;50.906;6.786;2024-02-16T15:27:12;5.43;;;4.60;;
9128;SDS011;4599;50.906;6.786;2024-02-16T15:31:14;8.27;;;4.37;;
9128;SDS011;4599;50.906;6.786;2024-02-16T15:35:16;6.83;;;3.67;;
9128;SDS011;4599;50.906;6.786;2024-02-16T15:39:19;5.80;;;3.20;;
9128;SDS011;4599;50.906;6.786;2024-02-16T15:43:21;4.97;;;3.63;;
9128;SDS011;4599;50.906;6.786;2024-02-16T15:47:23;4.47;;;3.27;;
9128;SDS011;4599;50.906;6.786;2024-02-16T15:51:26;3.50;;;2.80;;
9128;SDS011;4599;50.906;6.786;2024-02-16T15:55:35;4.67;;;3.33;;
9128;SDS011;4599;50.906;6.786;2024-02-16T15:59:36;3.20;;;2.90;;
9128;SDS011;4599;50.906;6.786;2024-02-16T16:03:38;5.57;;;3.10;;
9128;SDS011;4599;50.906;6.786;2024-02-16T16:07:40;4.17;;;2.93;;
9128;SDS011;4599;50.906;6.786;2024-02-16T16:11:46;3.40;;;2.97;;
9128;SDS011;4599;50.906;6.786;2024-02-16T16:15:48;3.10;;;2.80;;
9128;SDS011;4599;50.906;6.786;2024-02-16T16:19:50;3.97;;;2.90;;
9128;SDS011;4599;50.906;6.786;2024-02-16T16:23:52;3.20;;;3.00;;
9128;SDS011;4599;50.906;6.786;2024-02-16T16:27:55;3.00;;;2.70;;
9128;SDS011;4599;50.906;6.786;2024-02-16T16:31:56;3.00;;;2.80;;
9128;SDS011;4599;50.906;6.786;2024-02-16T16:36:01;4.03;;;2.83;;
9128;SDS011;4599;50.906;6.786;2024-02-16T16:40:04;3.57;;;3.27;;
9128;SDS011;4599;50.906;6.786;2024-02-16T16:44:07;5.20;;;4.13;;
9128;SDS011;4599;50.906;6.786;2024-02-16T16:48:09;4.97;;;4.47;;
9128;SDS011;4599;50.906;6.786;2024-02-16T16:52:11;5.63;;;4.77;;
9128;SDS011;4599;50.906;6.786;2024-02-16T16:56:13;8.53;;;5.50;;
9128;SDS011;4599;50.906;6.786;2024-02-16T17:00:16;5.70;;;5.10;;
9128;SDS011;4599;50.906;6.786;2024-02-16T17:04:18;8.47;;;5.43;;
9128;SDS011;4599;50.906;6.786;2024-02-16T17:08:20;6.13;;;5.53;;
9128;SDS011;4599;50.906;6.786;2024-02-16T17:12:21;7.43;;;5.77;;
9128;SDS011;4599;50.906;6.786;2024-02-16T17:16:24;9.57;;;6.30;;
9128;SDS011;4599;50.906;6.786;2024-02-16T17:20:27;6.60;;;6.00;;
9128;SDS011;4599;50.906;6.786;2024-02-16T17:24:29;5.97;;;5.40;;
9128;SDS011;4599;50.906;6.786;2024-02-16T17:28:31;6.13;;;5.60;;
9128;SDS011;4599;50.906;6.786;2024-02-16T17:32:35;6.33;;;5.67;;
9128;SDS011;4599;50.906;6.786;2024-02-16T17:36:45;7.50;;;6.00;;
9128;SDS011;4599;50.906;6.786;2024-02-16T17:40:54;8.53;;;7.27;;
9128;SDS011;4599;50.906;6.786;2024-02-16T17:49:47;7.97;;;6.80;;
9128;SDS011;4599;50.906;6.786;2024-02-16T17:53:49;7.73;;;6.90;;
9128;SDS011;4599;50.906;6.786;2024-02-16T17:57:51;8.67;;;7.77;;
9128;SDS011;4599;50.906;6.786;2024-02-16T18:01:53;9.03;;;8.13;;
9128;SDS011;4599;50.906;6.786;2024-02-16T18:05:56;10.03;;;7.93;;
9128;SDS011;4599;50.906;6.786;2024-02-16T18:09:58;8.53;;;7.73;;
9128;SDS011;4599;50.906;6.786;2024-02-16T18:13:59;10.67;;;8.30;;
9128;SDS011;4599;50.906;6.786;2024-02-16T18:18:01;8.63;;;7.80;;
9128;SDS011;4599;50.906;6.786;2024-02-16T18:22:04;8.60;;;7.80;;
9128;SDS011;4599;50.906;6.786;2024-02-16T18:26:06;9.97;;;8.87;;
9128;SDS011;4599;50.906;6.786;2024-02-16T18:30:09;9.90;;;8.40;;
9128;SDS011;4599;50.906;6.786;2024-02-16T18:34:11;8.90;;;8.00;;
9128;SDS011;4599;50.906;6.786;2024-02-16T18:38:17;8.67;;;7.70;;
9128;SDS011;4599;50.906;6.786;2024-02-16T18:42:18;7.73;;;7.03;;
9128;SDS011;4599;50.906;6.786;2024-02-16T18:46:20;7.13;;;6.43;;
9128;SDS011;4599;50.906;6.786;2024-02-16T18:50:22;6.97;;;6.27;;
9128;SDS011;4599;50.906;6.786;2024-02-16T18:54:25;7.73;;;6.13;;
9128;SDS011;4599;50.906;6.786;2024-02-16T18:58:27;6.40;;;5.80;;
9128;SDS011;4599;50.906;6.786;2024-02-16T19:02:29;11.27;;;5.77;;
9128;SDS011;4599;50.906;6.786;2024-02-16T19:06:31;6.17;;;5.07;;
9128;SDS011;4599;50.906;6.786;2024-02-16T19:10:34;6.10;;;4.80;;
9128;SDS011;4599;50.906;6.786;2024-02-16T19:14:36;5.97;;;5.07;;
9128;SDS011;4599;50.906;6.786;2024-02-16T19:18:38;5.80;;;4.83;;
9128;SDS011;4599;50.906;6.786;2024-02-16T19:22:40;6.40;;;5.17;;
9128;SDS011;4599;50.906;6.786;2024-02-16T19:26:44;5.40;;;4.90;;
9128;SDS011;4599;50.906;6.786;2024-02-16T19:30:45;4.73;;;4.27;;
9128;SDS011;4599;50.906;6.786;2024-02-16T19:34:47;5.10;;;4.60;;
9128;SDS011;4599;50.906;6.786;2024-02-16T19:38:49;6.27;;;4.80;;
9128;SDS011;4599;50.906;6.786;2024-02-16T19:42:53;5.50;;;4.93;;
9128;SDS011;4599;50.906;6.786;2024-02-16T19:46:54;7.00;;;6.30;;
9128;SDS011;4599;50.906;6.786;2024-02-16T19:50:56;8.33;;;6.13;;
9128;SDS011;4599;50.906;6.786;2024-02-16T19:54:58;10.60;;;6.23;;
9128;SDS011;4599;50.906;6.786;2024-02-16T19:59:02;7.10;;;6.40;;
9128;SDS011;4599;50.906;6.786;2024-02-16T20:03:04;9.60;;;6.63;;
9128;SDS011;4599;50.906;6.786;2024-02-16T20:07:06;7.13;;;6.43;;
9128;SDS011;4599;50.906;6.786;2024-02-16T20:11:08;7.10;;;6.40;;
9128;SDS011;4599;50.906;6.786;2024-02-16T20:15:14;6.97;;;6.27;;
9128;SDS011;4599;50.906;6.786;2024-02-16T20:19:15;8.37;;;6.47;;
9128;SDS011;4599;50.906;6.786;2024-02-16T20:23:17;8.10;;;7.30;;
9128;SDS011;4599;50.906;6.786;2024-02-16T20:27:19;10.33;;;7.50;;
9128;SDS011;4599;50.906;6.786;2024-02-16T20:31:22;11.17;;;7.30;;
9128;SDS011;4599;50.906;6.786;2024-02-16T20:35:24;7.90;;;7.13;;
9128;SDS011;4599;50.906;6.786;2024-02-16T20:39:26;8.77;;;7.97;;
9128;SDS011;4599;50.906;6.786;2024-02-16T20:43:28;8.60;;;7.70;;
9128;SDS011;4599;50.906;6.786;2024-02-16T20:47:31;10.13;;;7.70;;
9128;SDS011;4599;50.906;6.786;2024-02-16T20:51:33;9.80;;;8.70;;
9128;SDS011;4599;50.906;6.786;2024-02-16T20:55:35;11.47;;;8.60;;
9128;SDS011;4599;50.906;6.786;2024-02-16T20:59:37;12.37;;;9.23;;
9128;SDS011;4599;50.906;6.786;2024-02-16T21:03:40;11.90;;;8.87;;
9128;SDS011;4599;50.906;6.786;2024-02-16T21:07:42;12.70;;;10.70;;
9128;SDS011;4599;50.906;6.786;2024-02-16T21:11:44;12.33;;;10.20;;
9128;SDS011;4599;50.906;6.786;2024-02-16T21:15:46;13.17;;;10.80;;
9128;SDS011;4599;50.906;6.786;2024-02-16T21:19:49;13.40;;;12.00;;
9128;SDS011;4599;50.906;6.786;2024-02-16T21:23:50;14.83;;;11.63;;
9128;SDS011;4599;50.906;6.786;2024-02-16T21:27:52;15.93;;;13.07;;
9128;SDS011;4599;50.906;6.786;2024-02-16T21:31:54;16.33;;;13.63;;
9128;SDS011;4599;50.906;6.786;2024-02-16T21:35:58;16.50;;;13.73;;
9128;SDS011;4599;50.906;6.786;2024-02-16T21:40:00;19.60;;;13.20;;
9128;SDS011;4599;50.906;6.786;2024-02-16T21:44:02;15.43;;;13.83;;
9128;SDS011;4599;50.906;6.786;2024-02-16T21:48:04;16.73;;;14.67;;
9128;SDS011;4599;50.906;6.786;2024-02-16T21:52:08;17.60;;;14.63;;
9128;SDS011;4599;50.906;6.786;2024-02-16T21:56:09;21.07;;;16.07;;
9128;SDS011;4599;50.906;6.786;2024-02-16T22:00:12;18.80;;;15.80;;
9128;SDS011;4599;50.906;6.786;2024-02-16T22:04:15;20.53;;;16.50;;
9128;SDS011;4599;50.906;6.786;2024-02-16T22:08:18;20.00;;;17.47;;
9128;SDS011;4599;50.906;6.786;2024-02-16T22:12:20;20.90;;;15.07;;
9128;SDS011;4599;50.906;6.786;2024-02-16T22:16:21;21.73;;;17.87;;
9128;SDS011;4599;50.906;6.786;2024-02-16T22:20:23;21.93;;;17.80;;
9128;SDS011;4599;50.906;6.786;2024-02-16T22:24:26;22.90;;;18.13;;
9128;SDS011;4599;50.906;6.786;2024-02-16T22:28:28;25.07;;;17.30;;
9128;SDS011;4599;50.906;6.786;2024-02-16T22:32:30;23.07;;;17.80;;
9128;SDS011;4599;50.906;6.786;2024-02-16T22:36:32;21.27;;;16.97;;
9128;SDS011;4599;50.906;6.786;2024-02-16T22:40:35;24.47;;;16.93;;
9128;SDS011;4599;50.906;6.786;2024-02-16T22:44:37;22.63;;;15.47;;
9128;SDS011;4599;50.906;6.786;2024-02-16T22:48:39;18.33;;;14.30;;
9128;SDS011;4599;50.906;6.786;2024-02-16T22:52:41;19.60;;;13.73;;
9128;SDS011;4599;50.906;6.786;2024-02-16T22:56:44;18.67;;;13.30;;
9128;SDS011;4599;50.906;6.786;2024-02-16T23:00:46;18.93;;;12.77;;
9128;SDS011;4599;50.906;6.786;2024-02-16T23:04:48;19.40;;;13.60;;
9128;SDS011;4599;50.906;6.786;2024-02-16T23:08:50;21.10;;;14.23;;
9128;SDS011;4599;50.906;6.786;2024-02-16T23:12:53;19.83;;;13.93;;
9128;SDS011;4599;50.906;6.786;2024-02-16T23:16:55;18.57;;;14.03;;
9128;SDS011;4599;50.906;6.786;2024-02-16T23:20:57;22.17;;;13.27;;
9128;SDS011;4599;50.906;6.786;2024-02-16T23:24:59;19.03;;;13.07;;
9128;SDS011;4599;50.906;6.786;2024-02-16T23:29:02;19.23;;;13.00;;
9128;SDS011;4599;50.906;6.786;2024-02-16T23:33:03;18.67;;;12.43;;
9128;SDS011;4599;50.906;6.786;2024-02-16T23:37:06;18.83;;;12.67;;
9128;SDS011;4599;50.906;6.786;2024-02-16T23:41:08;18.07;;;11.80;;
9128;SDS011;4599;50.906;6.786;2024-02-16T23:45:11;16.70;;;11.87;;
9128;SDS011;4599;50.906;6.786;2024-02-16T23:49:14;18.53;;;12.20;;
9128;SDS011;4599;50.906;6.786;2024-02-16T23:53:16;18.80;;;12.07;;
9128;SDS011;4599;50.906;6.786;2024-02-16T23:57:18;21.40;;;12.57;;
